createdAt,value
2017-08-14T00:00:22.768Z,88.5
2017-08-14T00:01:22.460Z,88.8
2017-08-14T00:02:21.628Z,88.7
2017-08-14T00:03:20.695Z,88.8
2017-08-14T00:04:19.763Z,88.8
2017-08-14T00:05:19.325Z,88.9
2017-08-14T00:05:49.835Z,88.9
2017-08-14T00:06:20.215Z,88.7
2017-08-14T00:06:50.501Z,88.7
2017-08-14T00:07:21.142Z,88.7
2017-08-14T00:07:51.640Z,88.7
2017-08-14T00:09:15.760Z,88.7
2017-08-14T00:10:14.816Z,88.7
2017-08-14T00:11:14.263Z,88.7
2017-08-14T00:12:13.326Z,88.5
2017-08-14T00:13:12.528Z,88.6
2017-08-14T00:14:11.732Z,88.7
2017-08-14T00:15:10.920Z,88.6
2017-08-14T00:16:10.103Z,88.6
2017-08-14T00:17:09.159Z,88.8
2017-08-14T00:17:39.549Z,88.8
2017-08-14T00:18:09.931Z,88.8
2017-08-14T00:18:40.326Z,88.8
2017-08-14T00:19:10.702Z,89
2017-08-14T00:20:06.865Z,89.1
2017-08-14T00:21:06.429Z,89.2
2017-08-14T00:22:05.615Z,89.2
2017-08-14T00:23:04.571Z,89.2
2017-08-14T00:25:03.026Z,89
2017-08-14T00:26:02.479Z,89
2017-08-14T00:27:01.671Z,89
2017-08-14T00:28:00.868Z,89.1
2017-08-14T00:29:00.050Z,89.2
2017-08-14T00:29:59.111Z,89.2
2017-08-14T00:30:58.303Z,89.3
2017-08-14T00:31:57.382Z,89.5
2017-08-14T00:32:56.581Z,89.6
2017-08-14T00:33:55.518Z,89.6
2017-08-14T00:34:55.083Z,89.8
2017-08-14T00:35:54.141Z,90
2017-08-14T00:36:53.321Z,89.9
2017-08-14T00:37:23.813Z,89.9
2017-08-14T00:38:51.957Z,89.7
2017-08-14T00:39:51.026Z,89.7
2017-08-14T00:40:50.082Z,89.8
2017-08-14T00:41:49.269Z,89.7
2017-08-14T00:42:48.450Z,89.8
2017-08-14T00:43:47.518Z,89.8
2017-08-14T00:44:47.210Z,89.8
2017-08-14T00:45:46.280Z,89.8
2017-08-14T00:46:45.457Z,89.5
2017-08-14T00:47:44.415Z,89.6
2017-08-14T00:48:43.598Z,89.6
2017-08-14T00:49:42.788Z,89.7
2017-08-14T00:50:41.967Z,89.7
2017-08-14T00:51:41.021Z,89.6
2017-08-14T00:52:40.489Z,89.5
2017-08-14T00:53:39.320Z,89.5
2017-08-14T00:54:38.768Z,89.6
2017-08-14T00:55:37.814Z,89.6
2017-08-14T00:56:37.378Z,89.8
2017-08-14T00:57:36.569Z,89.9
2017-08-14T00:58:35.764Z,90
2017-08-14T00:59:34.952Z,90.2
2017-08-14T01:00:34.128Z,90.4
2017-08-14T01:01:33.208Z,90.4
2017-08-14T01:02:32.405Z,90.5
2017-08-14T01:03:31.586Z,90.5
2017-08-14T01:04:30.759Z,90.2
2017-08-14T01:05:29.939Z,90.1
2017-08-14T01:06:29.119Z,90
2017-08-14T01:07:28.685Z,89.9
2017-08-14T01:08:27.761Z,89.7
2017-08-14T01:09:26.721Z,89.7
2017-08-14T01:10:26.278Z,89.7
2017-08-14T01:11:25.215Z,89.7
2017-08-14T01:12:24.276Z,89.6
2017-08-14T01:12:55.045Z,89.6
2017-08-14T01:13:25.547Z,89.6
2017-08-14T01:13:56.037Z,89.6
2017-08-14T01:15:22.277Z,89.9
2017-08-14T01:16:21.345Z,89.9
2017-08-14T01:17:20.542Z,89.8
2017-08-14T01:18:19.713Z,89.8
2017-08-14T01:19:18.650Z,89.8
2017-08-14T01:20:17.730Z,89.8
2017-08-14T01:21:17.408Z,89.9
2017-08-14T01:22:16.342Z,90
2017-08-14T01:23:15.539Z,90
2017-08-14T01:24:14.735Z,90
2017-08-14T01:25:13.923Z,90.1
2017-08-14T01:26:13.111Z,90
2017-08-14T01:27:12.303Z,89.9
2017-08-14T01:28:11.395Z,89.7
2017-08-14T01:29:10.576Z,89.8
2017-08-14T01:30:09.768Z,89.7
2017-08-14T01:31:08.952Z,89.7
2017-08-14T01:32:08.160Z,89.7
2017-08-14T01:33:07.215Z,89.8
2017-08-14T01:34:06.785Z,89.9
2017-08-14T01:35:05.964Z,89.9
2017-08-14T01:37:04.037Z,90
2017-08-14T01:38:03.101Z,90
2017-08-14T01:39:02.683Z,90.1
2017-08-14T01:40:01.878Z,90.1
2017-08-14T01:41:00.956Z,90
2017-08-14T01:42:00.150Z,89.8
2017-08-14T01:42:59.329Z,89.7
2017-08-14T01:43:58.518Z,89.7
2017-08-14T01:44:57.344Z,89.9
2017-08-14T01:45:28.345Z,89.9
2017-08-14T01:45:58.711Z,89.9
2017-08-14T01:46:56.155Z,90.1
2017-08-14T01:47:55.226Z,90.1
2017-08-14T01:48:54.290Z,90.3
2017-08-14T01:49:53.475Z,90.5
2017-08-14T01:50:52.662Z,90.6
2017-08-14T01:52:51.237Z,90.3
2017-08-14T01:53:21.255Z,90.3
2017-08-14T01:54:49.534Z,90.2
2017-08-14T01:55:48.710Z,90.2
2017-08-14T01:56:47.900Z,90.2
2017-08-14T01:57:46.979Z,90
2017-08-14T01:58:46.171Z,90
2017-08-14T01:59:45.356Z,90
2017-08-14T02:00:44.537Z,90.2
2017-08-14T02:01:43.606Z,90.2
2017-08-14T02:02:43.192Z,90.2
2017-08-14T02:03:42.382Z,90.2
2017-08-14T02:04:41.459Z,90.1
2017-08-14T02:05:40.530Z,90
2017-08-14T02:06:10.917Z,90
2017-08-14T02:06:41.296Z,90
2017-08-14T02:07:38.849Z,89.9
2017-08-14T02:08:38.415Z,89.9
2017-08-14T02:09:37.258Z,89.8
2017-08-14T02:10:36.435Z,89.9
2017-08-14T02:11:35.620Z,89.9
2017-08-14T02:12:34.686Z,89.9
2017-08-14T02:13:33.867Z,89.9
2017-08-14T02:14:33.052Z,90
2017-08-14T02:15:32.239Z,89.9
2017-08-14T02:16:31.437Z,90
2017-08-14T02:17:30.633Z,89.9
2017-08-14T02:18:29.805Z,89.9
2017-08-14T02:19:41.725Z,90
2017-08-14T02:20:28.224Z,90.1
2017-08-14T02:21:27.188Z,90.1
2017-08-14T02:22:26.761Z,90.2
2017-08-14T02:23:26.009Z,90.2
2017-08-14T02:23:56.389Z,90.2
2017-08-14T02:24:26.883Z,90.6
2017-08-14T02:24:57.392Z,90.6
2017-08-14T02:25:27.900Z,90.9
2017-08-14T02:25:58.296Z,90.9
2017-08-14T02:27:22.651Z,91.3
2017-08-14T02:28:21.849Z,91.5
2017-08-14T02:29:20.924Z,91.5
2017-08-14T02:30:19.991Z,91.5
2017-08-14T02:31:19.568Z,91.5
2017-08-14T02:32:18.765Z,91.5
2017-08-14T02:33:17.858Z,91.6
2017-08-14T02:34:17.052Z,91.6
2017-08-14T02:35:16.145Z,91.5
2017-08-14T02:36:15.229Z,91.5
2017-08-14T02:37:14.415Z,91.5
2017-08-14T02:38:13.526Z,91.4
2017-08-14T02:39:12.717Z,91.3
2017-08-14T02:40:11.934Z,91.2
2017-08-14T02:41:11.131Z,91.3
2017-08-14T02:42:10.322Z,91.4
2017-08-14T02:43:09.514Z,91.4
2017-08-14T02:44:08.699Z,91.4
2017-08-14T02:46:07.289Z,91.3
2017-08-14T02:47:06.483Z,91.3
2017-08-14T02:48:05.673Z,91.2
2017-08-14T02:49:04.869Z,91.2
2017-08-14T02:50:03.948Z,91.1
2017-08-14T02:51:03.157Z,91
2017-08-14T02:52:02.369Z,90.9
2017-08-14T02:53:01.433Z,90.9
2017-08-14T02:54:00.626Z,90.9
2017-08-14T02:54:59.709Z,90.9
2017-08-14T02:55:58.895Z,90.7
2017-08-14T02:56:58.097Z,90.6
2017-08-14T02:57:57.289Z,90.7
2017-08-14T02:58:56.501Z,90.6
2017-08-14T02:59:55.694Z,90.6
2017-08-14T03:00:26.206Z,90.6
2017-08-14T03:00:56.593Z,90.5
2017-08-14T03:01:53.766Z,90.4
2017-08-14T03:02:52.963Z,90.4
2017-08-14T03:03:52.167Z,90.4
2017-08-14T03:04:51.242Z,90.4
2017-08-14T03:05:50.947Z,90.3
2017-08-14T03:06:49.671Z,90.3
2017-08-14T03:07:48.732Z,90.1
2017-08-14T03:08:48.305Z,90.2
2017-08-14T03:09:47.386Z,90.3
2017-08-14T03:10:46.454Z,90.3
2017-08-14T03:11:45.392Z,90.3
2017-08-14T03:12:44.965Z,90.1
2017-08-14T03:13:44.165Z,90.1
2017-08-14T03:14:43.343Z,90.2
2017-08-14T03:15:42.410Z,90.3
2017-08-14T03:16:41.601Z,90.4
2017-08-14T03:17:40.673Z,90.4
2017-08-14T03:18:39.745Z,90.4
2017-08-14T03:19:39.321Z,90.5
2017-08-14T03:20:09.827Z,90.5
2017-08-14T03:20:40.224Z,90.5
2017-08-14T03:21:37.552Z,90.5
2017-08-14T03:22:36.643Z,90.5
2017-08-14T03:23:35.711Z,90.8
2017-08-14T03:24:34.915Z,90.8
2017-08-14T03:25:34.115Z,90.8
2017-08-14T03:26:33.300Z,91
2017-08-14T03:27:32.882Z,91
2017-08-14T03:28:31.579Z,91.1
2017-08-14T03:29:30.767Z,91.2
2017-08-14T03:30:29.863Z,91.2
2017-08-14T03:31:00.381Z,91.2
2017-08-14T03:31:30.907Z,91.3
2017-08-14T03:32:01.204Z,91.3
2017-08-14T03:33:27.580Z,91.5
2017-08-14T03:34:26.761Z,91.6
2017-08-14T03:35:25.838Z,91.7
2017-08-14T03:36:25.419Z,91.9
2017-08-14T03:37:24.512Z,92.2
2017-08-14T03:38:23.591Z,92.2
2017-08-14T03:39:22.548Z,92.2
2017-08-14T03:40:21.619Z,92.4
2017-08-14T03:41:21.075Z,92.5
2017-08-14T03:42:20.152Z,92.6
2017-08-14T03:43:19.502Z,92.8
2017-08-14T03:44:18.591Z,92.9
2017-08-14T03:45:17.787Z,92.9
2017-08-14T03:46:16.971Z,92.9
2017-08-14T03:47:16.058Z,92.8
2017-08-14T03:48:15.252Z,92.8
2017-08-14T03:49:14.439Z,92.7
2017-08-14T03:50:13.506Z,92.6
2017-08-14T03:51:12.464Z,92.6
2017-08-14T03:52:12.164Z,92.6
2017-08-14T03:53:11.372Z,92.6
2017-08-14T03:53:41.759Z,92.6
2017-08-14T03:54:12.273Z,92.6
2017-08-14T03:55:09.456Z,92.6
2017-08-14T03:56:08.790Z,92.6
2017-08-14T03:57:07.860Z,92.6
2017-08-14T03:58:06.932Z,92.6
2017-08-14T03:59:06.016Z,92.5
2017-08-14T04:00:05.210Z,92.5
2017-08-14T04:01:04.404Z,92.5
2017-08-14T04:02:03.865Z,92.4
2017-08-14T04:03:03.065Z,92.3
2017-08-14T04:04:02.261Z,92.2
2017-08-14T04:05:01.462Z,92.2
2017-08-14T04:06:00.662Z,92.1
2017-08-14T04:06:59.364Z,92.1
2017-08-14T04:07:58.431Z,92
2017-08-14T04:08:58.123Z,92.1
2017-08-14T04:09:28.499Z,92.1
2017-08-14T04:09:58.896Z,92
2017-08-14T04:10:29.412Z,92
2017-08-14T04:10:59.913Z,91.9
2017-08-14T04:11:30.405Z,91.9
2017-08-14T04:12:00.921Z,91.8
2017-08-14T04:12:31.314Z,91.8
2017-08-14T04:13:01.820Z,91.7
2017-08-14T04:13:32.338Z,91.7
2017-08-14T04:14:53.175Z,91.7
2017-08-14T04:15:52.248Z,91.7
2017-08-14T04:16:51.205Z,91.6
2017-08-14T04:17:50.404Z,91.5
2017-08-14T04:18:49.602Z,91.5
2017-08-14T04:19:48.686Z,91.4
2017-08-14T04:20:47.769Z,91.3
2017-08-14T04:21:46.962Z,91.1
2017-08-14T04:22:46.156Z,91
2017-08-14T04:23:16.668Z,91
2017-08-14T04:23:47.178Z,91
2017-08-14T04:24:44.750Z,90.6
2017-08-14T04:25:43.822Z,90.5
2017-08-14T04:27:42.299Z,90
2017-08-14T04:28:41.367Z,89.8
2017-08-14T04:29:40.437Z,89.6
2017-08-14T04:30:39.545Z,89.5
2017-08-14T04:31:38.621Z,89.5
2017-08-14T04:33:37.079Z,89.1
2017-08-14T04:34:36.258Z,89.1
2017-08-14T04:35:35.339Z,88.9
2017-08-14T04:36:34.542Z,88.8
2017-08-14T04:37:33.621Z,88.8
2017-08-14T04:38:32.820Z,88.6
2017-08-14T04:39:32.030Z,88.4
2017-08-14T04:40:31.603Z,88.3
2017-08-14T04:41:30.796Z,88
2017-08-14T04:42:29.503Z,88
2017-08-14T04:43:28.958Z,87.9
2017-08-14T04:44:28.030Z,87.6
2017-08-14T04:45:27.564Z,87.5
2017-08-14T04:46:26.138Z,87.2
2017-08-14T04:47:25.361Z,87
2017-08-14T04:48:24.546Z,86.7
2017-08-14T04:49:23.768Z,86.7
2017-08-14T04:50:22.970Z,86.6
2017-08-14T04:51:22.034Z,86.2
2017-08-14T04:52:21.232Z,85.9
2017-08-14T04:53:20.420Z,85.9
2017-08-14T04:54:19.610Z,85.7
2017-08-14T04:55:18.798Z,85.5
2017-08-14T04:56:18.015Z,85.2
2017-08-14T04:57:17.088Z,84.8
2017-08-14T04:58:16.279Z,84.7
2017-08-14T04:59:15.483Z,84.5
2017-08-14T05:00:14.689Z,84.1
2017-08-14T05:01:13.892Z,83.8
2017-08-14T05:02:12.963Z,83.8
2017-08-14T05:03:12.160Z,84
2017-08-14T05:04:11.351Z,83.7
2017-08-14T05:05:10.548Z,83.5
2017-08-14T05:06:09.626Z,83.5
2017-08-14T05:07:08.822Z,83.5
2017-08-14T05:08:07.771Z,82.1
2017-08-14T05:09:07.467Z,81.8
2017-08-14T05:10:06.666Z,81.9
2017-08-14T05:11:05.625Z,81.4
2017-08-14T05:12:04.690Z,81.4
2017-08-14T05:13:03.903Z,81.3
2017-08-14T05:14:03.082Z,81
2017-08-14T05:15:02.155Z,80.8
2017-08-14T05:16:01.354Z,80.7
2017-08-14T05:17:00.555Z,80.7
2017-08-14T05:17:30.839Z,80.7
2017-08-14T05:18:01.620Z,80.6
2017-08-14T05:18:32.122Z,80.6
2017-08-14T05:19:02.631Z,80.3
2017-08-14T05:19:58.283Z,79.9
2017-08-14T05:20:57.471Z,80.1
2017-08-14T05:21:56.531Z,79.3
2017-08-14T05:22:55.728Z,79.6
2017-08-14T05:23:54.799Z,79.6
2017-08-14T05:24:53.906Z,79.6
2017-08-14T05:25:53.100Z,78.7
2017-08-14T05:26:52.184Z,79.1
2017-08-14T05:27:51.378Z,78.1
2017-08-14T05:28:50.579Z,78.2
2017-08-14T05:29:49.650Z,77.9
2017-08-14T05:30:48.836Z,77.5
2017-08-14T05:31:48.022Z,77.6
2017-08-14T05:32:46.980Z,77.2
2017-08-14T05:33:46.607Z,77.5
2017-08-14T05:34:45.572Z,77
2017-08-14T05:35:44.667Z,76.9
2017-08-14T05:36:44.242Z,77.1
2017-08-14T05:37:43.432Z,76.8
2017-08-14T05:38:42.614Z,77.1
2017-08-14T05:39:41.700Z,77.2
2017-08-14T05:41:39.779Z,76.5
2017-08-14T05:42:38.861Z,75.9
2017-08-14T05:43:38.053Z,75.6
2017-08-14T05:44:37.230Z,75.2
2017-08-14T05:45:36.810Z,75.6
2017-08-14T05:46:36.007Z,75.2
2017-08-14T05:47:34.710Z,75
2017-08-14T05:48:33.781Z,74.7
2017-08-14T05:49:33.476Z,74.4
2017-08-14T05:50:32.664Z,74.5
2017-08-14T05:51:31.859Z,74
2017-08-14T05:52:30.821Z,74.3
2017-08-14T05:53:30.008Z,74.1
2017-08-14T05:54:29.071Z,74
2017-08-14T05:55:28.146Z,73.8
2017-08-14T05:55:58.540Z,73.8
2017-08-14T05:56:28.929Z,74.4
2017-08-14T05:56:59.443Z,74.4
2017-08-14T05:57:29.950Z,74.1
2017-08-14T05:58:00.452Z,74.1
2017-08-14T05:59:25.194Z,73.8
2017-08-14T06:01:23.174Z,73.8
2017-08-14T06:02:22.373Z,73.4
2017-08-14T06:03:21.844Z,73.1
2017-08-14T06:05:20.310Z,73
2017-08-14T06:06:19.498Z,72.6
2017-08-14T06:07:18.565Z,72.7
2017-08-14T06:07:48.987Z,72.7
2017-08-14T06:08:19.491Z,71.9
2017-08-14T06:08:49.984Z,71.9
2017-08-14T06:09:20.241Z,72.2
2017-08-14T06:09:50.515Z,72.2
2017-08-14T06:11:15.263Z,72.9
2017-08-14T06:12:14.338Z,72.9
2017-08-14T06:13:13.402Z,72
2017-08-14T06:15:11.978Z,72.1
2017-08-14T06:16:11.167Z,72.4
2017-08-14T06:17:10.361Z,72.6
2017-08-14T06:18:09.557Z,71.8
2017-08-14T06:19:08.418Z,72.5
2017-08-14T06:20:07.614Z,72.2
2017-08-14T06:21:07.190Z,72.4
2017-08-14T06:22:06.385Z,72.2
2017-08-14T06:23:05.575Z,72
2017-08-14T06:24:04.759Z,71.8
2017-08-14T06:25:03.844Z,71.9
2017-08-14T06:26:03.046Z,70.9
2017-08-14T06:27:02.247Z,71.1
2017-08-14T06:27:32.749Z,71.1
2017-08-14T06:29:00.516Z,69.3
2017-08-14T06:29:59.717Z,70.9
2017-08-14T06:30:58.906Z,70.6
2017-08-14T06:31:58.110Z,70.6
2017-08-14T06:32:57.187Z,70.6
2017-08-14T06:33:56.387Z,70.3
2017-08-14T06:34:55.497Z,70.3
2017-08-14T06:35:54.690Z,70.4
2017-08-14T06:36:54.189Z,68.7
2017-08-14T06:37:53.263Z,69.5
2017-08-14T06:38:52.342Z,69.4
2017-08-14T06:39:51.410Z,69.3
2017-08-14T06:40:50.491Z,69.8
2017-08-14T06:41:50.065Z,69.4
2017-08-14T06:43:48.538Z,70.7
2017-08-14T06:44:47.619Z,71
2017-08-14T06:45:46.807Z,70.7
2017-08-14T06:46:45.874Z,69
2017-08-14T06:47:45.069Z,69.4
2017-08-14T06:48:44.254Z,69.4
2017-08-14T06:49:14.762Z,69.4
2017-08-14T06:49:45.266Z,69.4
2017-08-14T06:50:42.930Z,69
2017-08-14T06:51:41.880Z,69.9
2017-08-14T06:52:40.837Z,70.4
2017-08-14T06:53:40.446Z,69.3
2017-08-14T06:55:38.912Z,69.3
2017-08-14T06:56:38.122Z,68.5
2017-08-14T06:57:37.189Z,68.9
2017-08-14T06:58:36.378Z,68.5
2017-08-14T06:59:35.461Z,68.3
2017-08-14T07:00:34.645Z,67.9
2017-08-14T07:01:33.827Z,67.7
2017-08-14T07:02:33.006Z,68
2017-08-14T07:03:32.210Z,68.1
2017-08-14T07:04:31.394Z,68.8
2017-08-14T07:05:30.967Z,68.8
2017-08-14T07:06:29.682Z,68.8
2017-08-14T07:07:29.383Z,67.6
2017-08-14T07:08:28.470Z,67.9
2017-08-14T07:09:27.679Z,67
2017-08-14T07:10:26.869Z,67
2017-08-14T07:11:26.060Z,65.7
2017-08-14T07:12:25.013Z,65.1
2017-08-14T07:13:24.588Z,65.1
2017-08-14T07:14:23.433Z,65.1
2017-08-14T07:15:22.446Z,64.5
2017-08-14T07:16:22.146Z,64.8
2017-08-14T07:17:21.337Z,64.2
2017-08-14T07:18:20.532Z,63.4
2017-08-14T07:19:19.596Z,62.4
2017-08-14T07:20:18.681Z,62.5
2017-08-14T07:21:17.877Z,62.8
2017-08-14T07:22:17.066Z,62.8
2017-08-14T07:23:16.264Z,62.8
2017-08-14T07:24:15.342Z,62
2017-08-14T07:25:15.033Z,62
2017-08-14T07:26:14.240Z,62.5
2017-08-14T07:27:13.435Z,62
2017-08-14T07:28:12.634Z,62.8
2017-08-14T07:29:11.722Z,63
2017-08-14T07:30:10.794Z,62.6
2017-08-14T07:31:10.375Z,63
2017-08-14T07:32:09.114Z,61.3
2017-08-14T07:33:08.810Z,61.2
2017-08-14T07:33:39.191Z,61.2
2017-08-14T07:34:09.565Z,60.9
2017-08-14T07:34:40.392Z,60.9
2017-08-14T07:35:10.272Z,61.7
2017-08-14T07:35:40.424Z,61.7
2017-08-14T07:37:05.434Z,60.1
2017-08-14T07:38:04.639Z,62.2
2017-08-14T07:39:03.607Z,62.2
2017-08-14T07:40:03.764Z,62.2
2017-08-14T07:41:02.361Z,61.8
2017-08-14T07:42:01.437Z,61.3
2017-08-14T07:43:00.505Z,60.7
2017-08-14T07:44:00.107Z,60.1
2017-08-14T07:44:59.292Z,60
2017-08-14T07:45:58.245Z,59.9
2017-08-14T07:46:57.939Z,60.5
2017-08-14T07:47:57.009Z,60.4
2017-08-14T07:48:56.189Z,60.8
2017-08-14T07:49:55.387Z,60.2
2017-08-14T07:50:54.469Z,60.8
2017-08-14T07:51:53.436Z,61.7
2017-08-14T07:52:53.143Z,60.6
2017-08-14T07:53:52.340Z,60.6
2017-08-14T07:54:51.412Z,61
2017-08-14T07:56:49.867Z,61
2017-08-14T07:57:49.065Z,59.7
2017-08-14T07:58:48.141Z,60.5
2017-08-14T07:59:47.607Z,59.7
2017-08-14T08:00:46.566Z,59.7
2017-08-14T08:01:46.347Z,59.7
2017-08-14T08:02:45.551Z,59.6
2017-08-14T08:03:44.627Z,60
2017-08-14T08:04:43.822Z,59.8
2017-08-14T08:05:42.772Z,59.5
2017-08-14T08:06:42.468Z,58.9
2017-08-14T08:07:41.560Z,60
2017-08-14T08:08:40.555Z,59.8
2017-08-14T08:09:40.128Z,59.2
2017-08-14T08:10:39.207Z,59.5
2017-08-14T08:11:38.287Z,59.9
2017-08-14T08:12:37.364Z,59.9
2017-08-14T08:13:36.710Z,59.9
2017-08-14T08:14:36.380Z,59.7
2017-08-14T08:15:35.468Z,58.3
2017-08-14T08:16:34.654Z,59.2
2017-08-14T08:17:33.714Z,57.4
2017-08-14T08:18:33.395Z,58.5
2017-08-14T08:19:32.613Z,57.8
2017-08-14T08:20:31.809Z,57.9
2017-08-14T08:21:31.009Z,57.9
2017-08-14T08:22:30.086Z,57.8
2017-08-14T08:23:29.144Z,58.7
2017-08-14T08:24:28.717Z,58.5
2017-08-14T08:24:59.108Z,58.5
2017-08-14T08:25:29.491Z,58.2
2017-08-14T08:25:59.996Z,58.2
2017-08-14T08:26:30.376Z,58
2017-08-14T08:27:00.775Z,58
2017-08-14T08:27:31.543Z,59.5
2017-08-14T08:28:01.812Z,59.5
2017-08-14T08:29:24.683Z,60.1
2017-08-14T08:30:23.882Z,60.1
2017-08-14T08:31:23.347Z,60.1
2017-08-14T08:32:22.413Z,58
2017-08-14T08:33:21.488Z,58.5
2017-08-14T08:34:21.073Z,58.1
2017-08-14T08:35:20.148Z,58.3
2017-08-14T08:36:19.334Z,58.3
2017-08-14T08:37:19.028Z,57.6
2017-08-14T08:38:18.107Z,58.8
2017-08-14T08:39:17.288Z,57.6
2017-08-14T08:40:16.488Z,58.5
2017-08-14T08:41:15.710Z,59.4
2017-08-14T08:42:14.908Z,58.8
2017-08-14T08:43:14.241Z,58.2
2017-08-14T08:44:13.433Z,58.5
2017-08-14T08:45:13.009Z,58.8
2017-08-14T08:46:12.077Z,58.7
2017-08-14T08:47:11.275Z,58.7
2017-08-14T08:48:10.343Z,58.7
2017-08-14T08:49:09.798Z,58.7
2017-08-14T08:50:08.993Z,58.7
2017-08-14T08:51:08.457Z,58.2
2017-08-14T08:52:07.415Z,58.2
2017-08-14T08:53:06.879Z,57
2017-08-14T08:54:06.100Z,56.6
2017-08-14T08:55:05.284Z,57.1
2017-08-14T08:56:04.372Z,56.4
2017-08-14T08:56:34.638Z,56.4
2017-08-14T08:57:05.143Z,56.8
2017-08-14T08:57:35.518Z,56.8
2017-08-14T08:58:05.908Z,57.1
2017-08-14T08:59:02.466Z,57.4
2017-08-14T09:00:01.538Z,57.2
2017-08-14T09:01:00.747Z,57.3
2017-08-14T09:02:00.443Z,56.8
2017-08-14T09:02:59.644Z,58
2017-08-14T09:03:58.850Z,58
2017-08-14T09:04:57.951Z,58
2017-08-14T09:05:57.148Z,56.8
2017-08-14T09:06:56.345Z,56
2017-08-14T09:07:56.047Z,55.6
2017-08-14T09:08:55.244Z,54.3
2017-08-14T09:09:54.329Z,53.2
2017-08-14T09:10:53.411Z,54.3
2017-08-14T09:11:53.111Z,52.4
2017-08-14T09:12:52.301Z,53.9
2017-08-14T09:13:51.261Z,53.9
2017-08-14T09:14:50.448Z,54.4
2017-08-14T09:15:49.910Z,54.4
2017-08-14T09:16:49.119Z,53.4
2017-08-14T09:17:48.694Z,55.4
2017-08-14T09:18:47.653Z,54.9
2017-08-14T09:19:46.854Z,55.6
2017-08-14T09:20:46.556Z,55.6
2017-08-14T09:21:45.751Z,55.6
2017-08-14T09:22:44.835Z,54.1
2017-08-14T09:23:43.912Z,54.9
2017-08-14T09:24:43.256Z,53.4
2017-08-14T09:25:42.719Z,53.8
2017-08-14T09:26:41.790Z,53.6
2017-08-14T09:27:41.368Z,54.2
2017-08-14T09:28:40.552Z,53.1
2017-08-14T09:29:39.522Z,53.9
2017-08-14T09:30:39.225Z,54.3
2017-08-14T09:31:38.187Z,54.6
2017-08-14T09:32:08.700Z,54.6
2017-08-14T09:32:39.206Z,53.9
2017-08-14T09:33:09.598Z,53.9
2017-08-14T09:33:39.991Z,53
2017-08-14T09:34:10.381Z,53
2017-08-14T09:34:40.768Z,53.6
2017-08-14T09:35:11.154Z,53.6
2017-08-14T09:35:41.662Z,53.9
2017-08-14T09:36:34.694Z,53.7
2017-08-14T09:38:33.168Z,53.7
2017-08-14T09:39:32.636Z,52
2017-08-14T09:40:31.713Z,53.1
2017-08-14T09:41:31.272Z,52.4
2017-08-14T09:42:30.347Z,52.4
2017-08-14T09:43:29.558Z,52.1
2017-08-14T09:44:29.266Z,52.9
2017-08-14T09:45:28.456Z,52.8
2017-08-14T09:46:27.527Z,53.6
2017-08-14T09:47:26.981Z,53.9
2017-08-14T09:48:26.064Z,52.5
2017-08-14T09:49:25.266Z,51.7
2017-08-14T09:50:24.972Z,53
2017-08-14T09:51:24.174Z,53.2
2017-08-14T09:51:54.561Z,53.2
2017-08-14T09:53:22.205Z,53.9
2017-08-14T09:54:21.548Z,53.2
2017-08-14T09:56:20.516Z,53.9
2017-08-14T09:57:19.597Z,53.7
2017-08-14T09:58:19.180Z,54.4
2017-08-14T09:59:18.259Z,53.6
2017-08-14T10:00:17.850Z,52.5
2017-08-14T10:01:17.040Z,54
2017-08-14T10:02:16.125Z,55.1
2017-08-14T10:03:15.595Z,55.5
2017-08-14T10:03:46.109Z,55.5
2017-08-14T10:04:16.505Z,55.5
2017-08-14T10:04:46.768Z,55.5
2017-08-14T10:05:17.272Z,55.5
2017-08-14T10:05:47.665Z,55.5
2017-08-14T10:07:12.401Z,55.5
2017-08-14T10:08:11.873Z,55.3
2017-08-14T10:09:11.071Z,55.6
2017-08-14T10:10:10.546Z,56.3
2017-08-14T10:11:10.119Z,56.4
2017-08-14T10:12:09.339Z,56.4
2017-08-14T10:13:08.299Z,56.4
2017-08-14T10:14:07.773Z,55.8
2017-08-14T10:15:06.745Z,55.6
2017-08-14T10:16:06.214Z,54.6
2017-08-14T10:17:05.801Z,54.9
2017-08-14T10:18:04.885Z,54.9
2017-08-14T10:19:04.370Z,56.1
2017-08-14T10:20:03.337Z,54.5
2017-08-14T10:21:03.030Z,55.3
2017-08-14T10:22:02.097Z,54.9
2017-08-14T10:23:01.554Z,55.4
2017-08-14T10:24:00.644Z,54.6
2017-08-14T10:24:59.892Z,54.5
2017-08-14T10:25:59.585Z,55
2017-08-14T10:26:58.783Z,55.6
2017-08-14T10:27:57.982Z,54.6
2017-08-14T10:29:56.559Z,54.6
2017-08-14T10:30:55.750Z,53.6
2017-08-14T10:31:55.330Z,54.2
2017-08-14T10:32:54.530Z,54.8
2017-08-14T10:33:53.725Z,53.7
2017-08-14T10:34:53.179Z,54.3
2017-08-14T10:35:52.129Z,54.2
2017-08-14T10:36:51.986Z,54.2
2017-08-14T10:37:50.936Z,54.4
2017-08-14T10:38:50.623Z,54.6
2017-08-14T10:39:49.697Z,54.5
2017-08-14T10:40:49.276Z,53.7
2017-08-14T10:41:48.480Z,53.7
2017-08-14T10:42:47.673Z,53.7
2017-08-14T10:43:47.369Z,54
2017-08-14T10:44:46.562Z,52.8
2017-08-14T10:45:16.944Z,52.8
2017-08-14T10:45:47.338Z,52.9
2017-08-14T10:46:17.846Z,52.9
2017-08-14T10:47:44.494Z,54.1
2017-08-14T10:48:43.589Z,53.6
2017-08-14T10:49:43.167Z,53.7
2017-08-14T10:50:42.248Z,53.7
2017-08-14T10:51:41.605Z,54.5
2017-08-14T10:52:41.193Z,54.5
2017-08-14T10:53:40.286Z,53.5
2017-08-14T10:54:39.856Z,54.1
2017-08-14T10:55:39.052Z,53.6
2017-08-14T10:56:09.437Z,53.6
2017-08-14T10:56:39.708Z,52.7
2017-08-14T10:57:10.208Z,52.7
2017-08-14T10:57:40.716Z,51.2
2017-08-14T10:58:36.787Z,51.7
2017-08-14T10:59:36.383Z,52.8
2017-08-14T11:00:35.569Z,52.7
2017-08-14T11:01:34.785Z,51.5
2017-08-14T11:02:34.504Z,50.8
2017-08-14T11:03:33.717Z,51.7
2017-08-14T11:04:32.905Z,51.7
2017-08-14T11:05:32.474Z,50.9
2017-08-14T11:06:31.543Z,51.8
2017-08-14T11:07:31.105Z,51.6
2017-08-14T11:08:30.058Z,50.4
2017-08-14T11:09:29.645Z,49.1
2017-08-14T11:10:29.219Z,49.5
2017-08-14T11:11:28.476Z,51.1
2017-08-14T11:12:27.547Z,51.1
2017-08-14T11:13:27.011Z,50.4
2017-08-14T11:14:26.358Z,51.1
2017-08-14T11:16:24.833Z,49.3
2017-08-14T11:17:24.398Z,49.8
2017-08-14T11:18:23.974Z,49.8
2017-08-14T11:19:23.056Z,49.5
2017-08-14T11:20:22.710Z,49.4
2017-08-14T11:21:21.797Z,48.5
2017-08-14T11:22:20.992Z,48.5
2017-08-14T11:23:20.568Z,48.8
2017-08-14T11:24:19.753Z,49.5
2017-08-14T11:25:18.830Z,49.4
2017-08-14T11:26:18.419Z,49
2017-08-14T11:27:17.622Z,49.7
2017-08-14T11:28:16.957Z,49.6
2017-08-14T11:29:16.666Z,50.5
2017-08-14T11:30:15.862Z,49.5
2017-08-14T11:31:15.066Z,49
2017-08-14T11:32:14.655Z,49.3
2017-08-14T11:33:13.847Z,49.2
2017-08-14T11:35:12.799Z,49.2
2017-08-14T11:36:11.874Z,48.6
2017-08-14T11:37:11.454Z,49.1
2017-08-14T11:38:10.538Z,49.2
2017-08-14T11:39:10.113Z,48.6
2017-08-14T11:40:09.463Z,48.6
2017-08-14T11:41:09.051Z,50.6
2017-08-14T11:42:08.256Z,49.3
2017-08-14T11:43:07.450Z,49
2017-08-14T11:44:07.164Z,48.5
2017-08-14T11:45:06.345Z,48.5
2017-08-14T11:46:05.299Z,49
2017-08-14T11:47:04.998Z,47.8
2017-08-14T11:48:04.199Z,49.4
2017-08-14T11:49:03.894Z,48.6
2017-08-14T11:50:03.089Z,49
2017-08-14T11:51:02.438Z,49.4
2017-08-14T11:52:01.523Z,49.6
2017-08-14T11:52:32.030Z,49.6
2017-08-14T11:53:02.432Z,48.5
2017-08-14T11:53:32.939Z,48.5
2017-08-14T11:54:03.450Z,48.9
2017-08-14T11:54:33.953Z,48.9
2017-08-14T11:55:59.324Z,47.2
2017-08-14T11:56:58.503Z,47.2
2017-08-14T11:57:58.087Z,47.2
2017-08-14T11:58:57.286Z,47.7
2017-08-14T11:59:56.989Z,47.7
2017-08-14T12:00:56.074Z,48.6
2017-08-14T12:01:55.540Z,48.6
2017-08-14T12:02:55.127Z,49
2017-08-14T12:03:54.199Z,49.9
2017-08-14T12:04:53.765Z,49.5
2017-08-14T12:05:53.232Z,50
2017-08-14T12:06:23.628Z,50
2017-08-14T12:07:52.014Z,48.4
2017-08-14T12:08:51.226Z,48.5
2017-08-14T12:09:50.299Z,49.1
2017-08-14T12:10:49.875Z,48.5
2017-08-14T12:11:49.215Z,48.5
2017-08-14T12:12:19.728Z,48.5
2017-08-14T12:12:49.991Z,47.8
2017-08-14T12:13:47.828Z,47.2
2017-08-14T12:14:47.525Z,47.2
2017-08-14T12:15:46.998Z,47.2
2017-08-14T12:16:46.197Z,48.2
2017-08-14T12:17:45.779Z,48.3
2017-08-14T12:18:45.267Z,48
2017-08-14T12:19:44.338Z,48.2
2017-08-14T12:20:43.921Z,48
2017-08-14T12:21:42.879Z,48.3
2017-08-14T12:22:42.461Z,47.8
2017-08-14T12:23:41.925Z,49.5
2017-08-14T12:24:12.696Z,49.5
2017-08-14T12:24:43.084Z,49.5
2017-08-14T12:25:13.484Z,49.5
2017-08-14T12:26:40.133Z,49.8
2017-08-14T12:28:39.119Z,49.2
2017-08-14T12:29:38.307Z,50.1
2017-08-14T12:30:37.719Z,49.4
2017-08-14T12:31:37.302Z,49.2
2017-08-14T12:32:36.489Z,50.2
2017-08-14T12:33:35.938Z,50.2
2017-08-14T12:34:35.507Z,47.5
2017-08-14T12:35:34.579Z,49.4
2017-08-14T12:36:34.281Z,49.1
2017-08-14T12:37:33.345Z,49.9
2017-08-14T12:38:32.921Z,49.5
2017-08-14T12:39:32.512Z,49.2
2017-08-14T12:40:31.607Z,49.2
2017-08-14T12:41:31.062Z,48.6
2017-08-14T12:42:30.761Z,48.8
2017-08-14T12:43:30.100Z,48.8
2017-08-14T12:44:29.168Z,48.7
2017-08-14T12:45:28.757Z,48.4
2017-08-14T12:46:28.442Z,49.1
2017-08-14T12:47:27.511Z,48
2017-08-14T12:48:26.864Z,48.7